Leandra — V2EB4 — position and weather

sailwx.info

Track history (hours):
 
Tides and Currents Weather Stations Pressure Air Temp Water Temp Dewpoint Dewpoint Depression Visibility Wind Speed Wind Dir Waves Ship Positions

Leandra

Last reported at 2016-Apr-07 23:27 UTC. Time now 2016-May-01 00:30 UTC.
Position N 31°16' E 032°19'.
Warning: this ship's position is 23 days out of date.

Length 146 m; draft 7.6 m.

Type: Cargo ship. MMSI: 305375000.

Date/timePositionNaut miles runAvg speedWind from/ knotsBaromVisibWave heightAir tempDewpointWater temp
2016-Apr-07 23:27N 31°16' E 032°19'0 0.0
2016-Apr-07 22:33N 31°16' E 032°19'0 0.0
2016-Apr-07 21:26N 31°16' E 032°19'0 0.0
2016-Apr-07 20:29N 31°16' E 032°19'0 0.0
2016-Apr-07 19:32N 31°16' E 032°19'0 0.0
2016-Apr-07 17:33N 31°16' E 032°19'0 0.0
2016-Apr-07 16:33N 31°16' E 032°19'0 0.0
2016-Apr-07 15:33N 31°16' E 032°19'0 0.0
2016-Apr-07 14:33N 31°16' E 032°19'0 0.0
2016-Apr-07 13:33N 31°16' E 032°19'0 0.0
2016-Apr-07 12:33N 31°16' E 032°19'0 0.0
2016-Apr-07 11:33N 31°16' E 032°19'1 1.4
2016-Apr-07 10:33N 31°17' E 032°20'5 4.6
2016-Apr-07 09:33N 31°22' E 032°19'0 0.0
2016-Apr-07 08:33N 31°22' E 032°19'0 0.1
2016-Apr-07 07:33N 31°22' E 032°19'30 4.3
2016-Apr-07 00:33N 31°45' E 031°57'1110.7
2016-Apr-06 23:33N 31°52' E 031°48'1110.9
2016-Apr-06 22:33N 32°00' E 031°39'1110.8
2016-Apr-06 21:34N 32°08' E 031°31'1210.7
2016-Apr-06 20:27N 32°17' E 031°21'1211.0
2016-Apr-06 19:24N 32°26' E 031°12'1111.3
2016-Apr-06 18:26N 32°34' E 031°03'1111.8
2016-Apr-06 17:30N 32°42' E 030°54'1511.4
2016-Apr-06 16:13N 32°53' E 030°43'811.0
2016-Apr-06 15:30N 32°59' E 030°37'1110.4
2016-Apr-06 14:29N 33°06' E 030°28'30111.1
2016-Apr-05 11:17N 36°49' E 026°21'811.0
2016-Apr-05 10:33N 36°55' E 026°14'1111.0
2016-Apr-05 09:31N 37°05' E 026°09'1111.7
2016-Apr-05 08:33N 37°15' E 026°04'1211.8
2016-Apr-05 07:33N 37°26' E 025°56'1110.8
2016-Apr-05 06:33N 37°36' E 025°51'1410.9
2016-Apr-05 05:18N 37°49' E 025°49'231 9.3
2016-Apr-04 04:29N 40°55' E 028°48'1010.7
2016-Apr-04 03:33N 40°59' E 028°59'1 0.1
2016-Apr-03 02:29N 41°00' E 029°01'0 0.0
2016-Apr-02 22:29N 41°00' E 029°01'  
2016-Mar-31 06:32N 44°25' E 037°17'1111.2
2016-Mar-31 05:33N 44°30' E 037°30'1110.8
2016-Mar-31 04:33N 44°35' E 037°44'8 8.1
2016-Mar-31 03:33N 44°42' E 037°49'2 1.6
2016-Mar-31 02:33N 44°44' E 037°48'0 0.0
2016-Mar-31 01:33N 44°44' E 037°48'0 0.0
2016-Mar-31 00:33N 44°44' E 037°48'0 0.0
2016-Mar-30 23:33N 44°44' E 037°48'0 0.0
2016-Mar-30 22:33N 44°44' E 037°48'0 0.0
2016-Mar-30 21:33N 44°44' E 037°48'0 0.0
2016-Mar-30 20:33N 44°44' E 037°48'0 0.0
2016-Mar-30 19:33N 44°44' E 037°48'0 0.0
2016-Mar-30 18:33N 44°44' E 037°48'0 0.0
2016-Mar-30 17:09N 44°44' E 037°48'0 0.0
2016-Mar-30 16:33N 44°44' E 037°48'0 0.0
2016-Mar-30 15:33N 44°44' E 037°48'0 0.0
2016-Mar-30 14:33N 44°44' E 037°48'0 0.0
2016-Mar-30 13:33N 44°44' E 037°48'0 0.0
2016-Mar-30 12:33N 44°44' E 037°48'0 0.0
2016-Mar-30 11:33N 44°44' E 037°48'0 0.0
2016-Mar-30 10:33N 44°44' E 037°48'0 0.0
2016-Mar-30 09:33N 44°44' E 037°48'0 0.0
2016-Mar-30 08:33N 44°44' E 037°48'0 0.0
2016-Mar-30 07:33N 44°44' E 037°48'0 0.0
2016-Mar-30 06:33N 44°44' E 037°48'0 0.0
2016-Mar-30 05:33N 44°44' E 037°48'0 0.0
2016-Mar-30 04:33N 44°44' E 037°48'0 0.0
2016-Mar-30 03:33N 44°44' E 037°48'0 0.0
2016-Mar-30 02:33N 44°44' E 037°48'0 0.0
2016-Mar-30 01:33N 44°44' E 037°48'0 0.0
2016-Mar-30 00:33N 44°44' E 037°48'0 0.0
2016-Mar-29 23:33N 44°44' E 037°48'0 0.0
2016-Mar-29 22:33N 44°44' E 037°48'0 0.0
2016-Mar-29 21:33N 44°44' E 037°48'0 0.0
2016-Mar-29 20:33N 44°44' E 037°48'0 0.0
2016-Mar-29 19:33N 44°44' E 037°48'0 0.0
2016-Mar-29 18:33N 44°44' E 037°48'0 0.0
2016-Mar-29 17:33N 44°44' E 037°48'0 0.0
2016-Mar-29 16:33N 44°44' E 037°48'0 0.0
2016-Mar-29 15:33N 44°44' E 037°48'0 0.0
2016-Mar-29 14:33N 44°44' E 037°48'0 0.0
2016-Mar-29 13:27N 44°44' E 037°48'0 0.0
2016-Mar-29 12:30N 44°44' E 037°48'0 0.0
2016-Mar-29 11:33N 44°44' E 037°48'0 0.0
2016-Mar-29 10:33N 44°44' E 037°48'0 0.0
2016-Mar-29 09:33N 44°44' E 037°48'0 0.0
2016-Mar-29 08:33N 44°44' E 037°48'0 0.0
2016-Mar-29 07:33N 44°44' E 037°48'0 0.0
2016-Mar-29 06:33N 44°44' E 037°48'0 0.0
2016-Mar-29 05:33N 44°44' E 037°48'0 0.0
2016-Mar-29 04:33N 44°44' E 037°48'0 0.0
2016-Mar-29 03:30N 44°44' E 037°48'0 0.0
2016-Mar-29 02:33N 44°44' E 037°48'0 0.0
2016-Mar-29 01:33N 44°44' E 037°48'0 0.0
2016-Mar-29 00:33N 44°44' E 037°48'0 0.0
2016-Mar-28 23:33N 44°44' E 037°48'  
Track history (hours):
 
Tides and Currents Weather Stations Pressure Air Temp Water Temp Dewpoint Dewpoint Depression Visibility Wind Speed Wind Dir Waves Ship Positions

Leandra

Last reported at 2016-Apr-07 23:27 UTC. Time now 2016-May-01 00:30 UTC.
Position N 31°16' E 032°19'.
Warning: this ship's position is 23 days out of date.

Length 146 m; draft 7.6 m.

Type: Cargo ship. MMSI: 305375000.

Date/timePositionNaut miles runAvg speedWind from/ knotsBaromVisibWave heightAir tempDewpointWater temp
2016-Apr-07 23:27N 31°16' E 032°19'0 0.0
2016-Apr-07 22:33N 31°16' E 032°19'0 0.0
2016-Apr-07 21:26N 31°16' E 032°19'0 0.0
2016-Apr-07 20:29N 31°16' E 032°19'0 0.0
2016-Apr-07 19:32N 31°16' E 032°19'0 0.0
2016-Apr-07 17:33N 31°16' E 032°19'0 0.0
2016-Apr-07 16:33N 31°16' E 032°19'0 0.0
2016-Apr-07 15:33N 31°16' E 032°19'0 0.0
2016-Apr-07 14:33N 31°16' E 032°19'0 0.0
2016-Apr-07 13:33N 31°16' E 032°19'0 0.0
2016-Apr-07 12:33N 31°16' E 032°19'0 0.0
2016-Apr-07 11:33N 31°16' E 032°19'1 1.4
2016-Apr-07 10:33N 31°17' E 032°20'5 4.6
2016-Apr-07 09:33N 31°22' E 032°19'0 0.0
2016-Apr-07 08:33N 31°22' E 032°19'0 0.1
2016-Apr-07 07:33N 31°22' E 032°19'30 4.3
2016-Apr-07 00:33N 31°45' E 031°57'1110.7
2016-Apr-06 23:33N 31°52' E 031°48'1110.9
2016-Apr-06 22:33N 32°00' E 031°39'1110.8
2016-Apr-06 21:34N 32°08' E 031°31'1210.7
2016-Apr-06 20:27N 32°17' E 031°21'1211.0
2016-Apr-06 19:24N 32°26' E 031°12'1111.3
2016-Apr-06 18:26N 32°34' E 031°03'1111.8
2016-Apr-06 17:30N 32°42' E 030°54'1511.4
2016-Apr-06 16:13N 32°53' E 030°43'811.0
2016-Apr-06 15:30N 32°59' E 030°37'1110.4
2016-Apr-06 14:29N 33°06' E 030°28'30111.1
2016-Apr-05 11:17N 36°49' E 026°21'811.0
2016-Apr-05 10:33N 36°55' E 026°14'1111.0
2016-Apr-05 09:31N 37°05' E 026°09'1111.7
2016-Apr-05 08:33N 37°15' E 026°04'1211.8
2016-Apr-05 07:33N 37°26' E 025°56'1110.8
2016-Apr-05 06:33N 37°36' E 025°51'1410.9
2016-Apr-05 05:18N 37°49' E 025°49'231 9.3
2016-Apr-04 04:29N 40°55' E 028°48'1010.7
2016-Apr-04 03:33N 40°59' E 028°59'1 0.1
2016-Apr-03 02:29N 41°00' E 029°01'0 0.0
2016-Apr-02 22:29N 41°00' E 029°01'  
2016-Mar-31 06:32N 44°25' E 037°17'1111.2
2016-Mar-31 05:33N 44°30' E 037°30'1110.8
2016-Mar-31 04:33N 44°35' E 037°44'8 8.1
2016-Mar-31 03:33N 44°42' E 037°49'2 1.6
2016-Mar-31 02:33N 44°44' E 037°48'0 0.0
2016-Mar-31 01:33N 44°44' E 037°48'0 0.0
2016-Mar-31 00:33N 44°44' E 037°48'0 0.0
2016-Mar-30 23:33N 44°44' E 037°48'0 0.0
2016-Mar-30 22:33N 44°44' E 037°48'0 0.0
2016-Mar-30 21:33N 44°44' E 037°48'0 0.0
2016-Mar-30 20:33N 44°44' E 037°48'0 0.0
2016-Mar-30 19:33N 44°44' E 037°48'0 0.0
2016-Mar-30 18:33N 44°44' E 037°48'0 0.0
2016-Mar-30 17:09N 44°44' E 037°48'0 0.0
2016-Mar-30 16:33N 44°44' E 037°48'0 0.0
2016-Mar-30 15:33N 44°44' E 037°48'0 0.0
2016-Mar-30 14:33N 44°44' E 037°48'0 0.0
2016-Mar-30 13:33N 44°44' E 037°48'0 0.0
2016-Mar-30 12:33N 44°44' E 037°48'0 0.0
2016-Mar-30 11:33N 44°44' E 037°48'0 0.0
2016-Mar-30 10:33N 44°44' E 037°48'0 0.0
2016-Mar-30 09:33N 44°44' E 037°48'0 0.0
2016-Mar-30 08:33N 44°44' E 037°48'0 0.0
2016-Mar-30 07:33N 44°44' E 037°48'0 0.0
2016-Mar-30 06:33N 44°44' E 037°48'0 0.0
2016-Mar-30 05:33N 44°44' E 037°48'0 0.0
2016-Mar-30 04:33N 44°44' E 037°48'0 0.0
2016-Mar-30 03:33N 44°44' E 037°48'0 0.0
2016-Mar-30 02:33N 44°44' E 037°48'0 0.0
2016-Mar-30 01:33N 44°44' E 037°48'0 0.0
2016-Mar-30 00:33N 44°44' E 037°48'0 0.0
2016-Mar-29 23:33N 44°44' E 037°48'0 0.0
2016-Mar-29 22:33N 44°44' E 037°48'0 0.0
2016-Mar-29 21:33N 44°44' E 037°48'0 0.0
2016-Mar-29 20:33N 44°44' E 037°48'0 0.0
2016-Mar-29 19:33N 44°44' E 037°48'0 0.0
2016-Mar-29 18:33N 44°44' E 037°48'0 0.0
2016-Mar-29 17:33N 44°44' E 037°48'0 0.0
2016-Mar-29 16:33N 44°44' E 037°48'0 0.0
2016-Mar-29 15:33N 44°44' E 037°48'0 0.0
2016-Mar-29 14:33N 44°44' E 037°48'0 0.0
2016-Mar-29 13:27N 44°44' E 037°48'0 0.0
2016-Mar-29 12:30N 44°44' E 037°48'0 0.0
2016-Mar-29 11:33N 44°44' E 037°48'0 0.0
2016-Mar-29 10:33N 44°44' E 037°48'0 0.0
2016-Mar-29 09:33N 44°44' E 037°48'0 0.0
2016-Mar-29 08:33N 44°44' E 037°48'0 0.0
2016-Mar-29 07:33N 44°44' E 037°48'0 0.0
2016-Mar-29 06:33N 44°44' E 037°48'0 0.0
2016-Mar-29 05:33N 44°44' E 037°48'0 0.0
2016-Mar-29 04:33N 44°44' E 037°48'0 0.0
2016-Mar-29 03:30N 44°44' E 037°48'0 0.0
2016-Mar-29 02:33N 44°44' E 037°48'0 0.0
2016-Mar-29 01:33N 44°44' E 037°48'0 0.0
2016-Mar-29 00:33N 44°44' E 037°48'0 0.0
2016-Mar-28 23:33N 44°44' E 037°48'  

Dump ship's entire track history